Time;durP1;ratioP1;P1;durP2;ratioP2;P2;SDS_P1;SDS_P2;PMS_P1;PMS_P2;Temp;Humidity;BMP_temperature;BMP_pressure;BME280_temperature;BME280_humidity;BME280_pressure;Samples;Min_cycle;Max_cycle;Signal;HPM_P1;HPM_P2
2021/07/18 00:02:19;;;;;;;11.93;2.60;;;18.70;99.90;;;;;;5001507;28;20482;-86
2021/07/18 00:04:46;;;;;;;11.13;2.80;;;18.60;99.90;;;;;;4999194;28;20482;-86
2021/07/18 00:07:13;;;;;;;11.90;2.90;;;18.70;99.90;;;;;;5000797;28;20465;-86
2021/07/18 00:09:40;;;;;;;11.10;2.50;;;18.60;99.90;;;;;;4999901;28;20459;-86
2021/07/18 00:12:07;;;;;;;10.37;2.40;;;18.60;99.90;;;;;;4996991;28;20613;-86
2021/07/18 00:14:35;;;;;;;11.90;2.73;;;18.60;99.90;;;;;;4999798;28;20450;-86
2021/07/18 00:17:01;;;;;;;12.30;2.83;;;18.50;99.90;;;;;;4999155;28;20550;-86
2021/07/18 00:19:30;;;;;;;11.37;2.40;;;18.50;99.90;;;;;;4999278;28;20452;-85
2021/07/18 00:21:57;;;;;;;11.40;2.90;;;18.50;99.90;;;;;;4998503;28;20994;-86
2021/07/18 00:24:23;;;;;;;11.10;3.00;;;18.50;99.90;;;;;;4999279;28;20490;-86
2021/07/18 00:26:50;;;;;;;12.53;3.00;;;18.40;99.90;;;;;;4999315;28;20546;-86
2021/07/18 00:29:17;;;;;;;11.60;2.93;;;18.40;99.90;;;;;;4999717;28;20818;-86
2021/07/18 00:31:44;;;;;;;12.23;3.00;;;18.40;99.90;;;;;;4999696;28;20446;-86
2021/07/18 00:34:11;;;;;;;10.57;3.03;;;18.30;99.90;;;;;;5000120;28;20979;-86
2021/07/18 00:36:39;;;;;;;10.63;2.77;;;18.30;99.90;;;;;;4985474;28;20531;-86
2021/07/18 00:39:06;;;;;;;12.40;3.30;;;18.30;99.90;;;;;;4981868;28;20886;-86
2021/07/18 00:41:34;;;;;;;10.60;2.73;;;18.30;99.90;;;;;;4981277;28;20582;-86
2021/07/18 00:44:00;;;;;;;12.70;2.83;;;18.30;99.90;;;;;;4981600;28;20518;-86
2021/07/18 00:46:27;;;;;;;14.17;3.20;;;18.20;99.90;;;;;;4995372;28;20985;-86
2021/07/18 00:48:54;;;;;;;12.33;2.83;;;18.20;99.90;;;;;;4998375;28;20450;-86
2021/07/18 00:51:21;;;;;;;10.10;2.70;;;18.20;99.90;;;;;;4999541;28;20459;-86
2021/07/18 00:53:49;;;;;;;11.47;3.47;;;18.10;99.90;;;;;;5000243;28;20918;-86
2021/07/18 00:56:17;;;;;;;10.63;2.37;;;18.10;99.90;;;;;;5000870;28;20581;-86
2021/07/18 00:58:44;;;;;;;12.97;2.70;;;18.10;99.90;;;;;;5001311;28;20457;-86
2021/07/18 01:01:12;;;;;;;10.63;2.73;;;18.00;99.90;;;;;;5000415;28;20509;-86
2021/07/18 01:03:39;;;;;;;10.73;3.40;;;18.00;99.90;;;;;;5001673;28;20893;-86
2021/07/18 01:06:06;;;;;;;10.90;3.00;;;18.00;99.90;;;;;;4987634;28;20646;-87
2021/07/18 01:08:33;;;;;;;10.30;2.87;;;17.90;99.90;;;;;;4983621;28;20472;-86
2021/07/18 01:11:01;;;;;;;12.00;3.40;;;17.90;99.90;;;;;;4983562;28;20458;-86
2021/07/18 01:13:28;;;;;;;11.60;2.87;;;17.90;99.90;;;;;;4993038;28;20494;-87
2021/07/18 01:15:55;;;;;;;11.10;3.60;;;17.90;99.90;;;;;;4997145;28;20524;-85
2021/07/18 01:18:23;;;;;;;10.50;3.20;;;17.80;99.90;;;;;;4995919;28;20554;-86
2021/07/18 01:20:51;;;;;;;12.07;3.27;;;17.80;99.90;;;;;;4996148;28;20542;-87
2021/07/18 01:23:20;;;;;;;13.23;3.20;;;17.80;99.90;;;;;;4995334;28;20542;-86
2021/07/18 01:25:52;;;;;;;10.17;3.03;;;17.80;99.90;;;;;;5006487;28;20470;-88
2021/07/18 01:28:20;;;;;;;10.57;3.60;;;17.80;99.90;;;;;;5005607;28;20533;-86
2021/07/18 01:30:48;;;;;;;10.70;3.70;;;17.70;99.90;;;;;;5005560;28;20446;-86
2021/07/18 01:33:15;;;;;;;11.23;3.03;;;17.70;99.90;;;;;;4998036;28;20451;-86
2021/07/18 01:35:41;;;;;;;11.60;3.33;;;17.70;99.90;;;;;;4983196;28;20443;-86
2021/07/18 01:38:11;;;;;;;10.77;3.27;;;17.70;99.90;;;;;;4983556;28;20487;-87
2021/07/18 01:40:39;;;;;;;10.30;3.30;;;17.70;99.90;;;;;;4982429;28;20458;-86
2021/07/18 01:43:06;;;;;;;10.40;3.40;;;17.70;99.90;;;;;;4989619;28;20478;-87
2021/07/18 01:45:33;;;;;;;13.27;2.80;;;17.60;99.90;;;;;;5004549;28;20489;-86
2021/07/18 01:48:00;;;;;;;9.90;2.63;;;17.60;99.90;;;;;;5004379;28;20482;-86
2021/07/18 01:50:28;;;;;;;10.37;3.27;;;17.50;99.90;;;;;;5003618;28;20430;-86
2021/07/18 01:52:55;;;;;;;10.93;3.40;;;17.50;99.90;;;;;;5002764;28;20529;-86
2021/07/18 01:55:22;;;;;;;10.37;2.97;;;17.50;99.90;;;;;;4985706;28;20486;-88
2021/07/18 01:57:51;;;;;;;11.37;3.53;;;17.50;99.90;;;;;;4985462;28;20495;-87
2021/07/18 02:00:18;;;;;;;10.20;3.93;;;17.50;99.90;;;;;;4984911;28;20443;-86
2021/07/18 02:02:45;;;;;;;10.63;3.53;;;17.40;99.90;;;;;;4987312;28;20494;-86
2021/07/18 02:05:14;;;;;;;10.50;3.27;;;17.50;99.90;;;;;;4985792;28;20451;-86
2021/07/18 02:07:41;;;;;;;9.73;3.07;;;17.40;99.90;;;;;;4984487;28;21026;-85
2021/07/18 02:10:09;;;;;;;10.90;3.20;;;17.40;99.90;;;;;;4983035;28;20554;-86
2021/07/18 02:12:37;;;;;;;11.60;3.33;;;17.40;99.90;;;;;;4985031;28;20898;-86
2021/07/18 02:15:07;;;;;;;10.07;3.17;;;17.40;99.90;;;;;;5003564;28;20474;-86
2021/07/18 02:17:34;;;;;;;11.77;3.87;;;17.40;99.90;;;;;;5003492;28;20474;-86
2021/07/18 02:20:01;;;;;;;10.00;3.20;;;17.40;99.90;;;;;;5003315;28;20951;-86
2021/07/18 02:22:37;;;;;;;13.03;3.13;;;17.40;99.90;;;;;;5003777;28;20490;-86
2021/07/18 02:25:05;;;;;;;9.47;3.00;;;17.30;99.90;;;;;;4984919;28;20459;-86
2021/07/18 02:27:36;;;;;;;10.23;3.20;;;17.30;99.90;;;;;;4984675;28;20558;-87
2021/07/18 02:30:07;;;;;;;9.20;2.93;;;17.30;99.90;;;;;;4984992;28;20555;-87
2021/07/18 02:32:34;;;;;;;10.30;3.30;;;17.30;99.90;;;;;;4985510;28;20490;-86
2021/07/18 02:35:03;;;;;;;9.53;3.17;;;17.30;99.90;;;;;;5002610;28;20461;-86
2021/07/18 02:37:30;;;;;;;15.90;3.00;;;17.20;99.90;;;;;;5005191;28;20471;-85
2021/07/18 02:39:57;;;;;;;11.17;3.07;;;17.20;99.90;;;;;;5005018;28;20531;-86
2021/07/18 02:42:24;;;;;;;10.13;2.87;;;17.20;99.90;;;;;;5007486;28;20542;-85
2021/07/18 02:44:51;;;;;;;9.57;2.53;;;17.20;99.90;;;;;;4990055;28;20451;-86
2021/07/18 02:47:19;;;;;;;10.40;3.37;;;17.20;99.90;;;;;;4988109;28;20503;-86
2021/07/18 02:49:46;;;;;;;10.80;3.10;;;17.10;99.90;;;;;;4984221;28;20694;-86
2021/07/18 02:52:13;;;;;;;9.70;3.10;;;17.10;99.90;;;;;;4982077;28;20452;-86
2021/07/18 02:54:40;;;;;;;11.43;3.27;;;17.10;99.90;;;;;;4998385;28;20486;-86
2021/07/18 02:57:07;;;;;;;10.73;3.00;;;17.10;99.90;;;;;;5003654;28;20938;-86
2021/07/18 02:59:33;;;;;;;9.73;2.87;;;17.00;99.90;;;;;;5003259;28;20461;-86
2021/07/18 03:02:02;;;;;;;11.20;3.87;;;17.00;99.90;;;;;;5003062;28;20498;-86
2021/07/18 03:04:30;;;;;;;10.20;3.47;;;17.00;99.90;;;;;;4993957;28;20451;-86
2021/07/18 03:06:57;;;;;;;11.97;3.30;;;17.00;99.90;;;;;;5005063;28;20481;-86
2021/07/18 03:09:24;;;;;;;10.93;3.20;;;17.00;99.90;;;;;;5005031;28;20447;-87
2021/07/18 03:11:51;;;;;;;11.87;2.73;;;17.00;99.90;;;;;;5004781;28;20445;-86
2021/07/18 03:14:18;;;;;;;12.10;3.60;;;16.90;99.90;;;;;;4992689;28;20948;-86
2021/07/18 03:16:47;;;;;;;9.03;2.97;;;16.90;99.90;;;;;;4986501;28;20474;-87
2021/07/18 03:19:14;;;;;;;9.40;3.33;;;16.90;99.90;;;;;;4999520;28;20446;-87
2021/07/18 03:21:43;;;;;;;11.93;3.20;;;16.80;99.90;;;;;;5005713;28;20439;-87
2021/07/18 03:24:10;;;;;;;11.70;3.10;;;16.80;99.90;;;;;;4995158;28;20491;-86
2021/07/18 03:26:37;;;;;;;9.50;3.17;;;16.80;99.90;;;;;;4985449;28;20436;-86
2021/07/18 03:29:04;;;;;;;10.00;3.03;;;16.80;99.90;;;;;;4990926;28;20511;-86
2021/07/18 03:31:31;;;;;;;10.23;3.10;;;16.80;99.90;;;;;;4987858;28;20436;-87
2021/07/18 03:33:58;;;;;;;10.90;2.73;;;16.80;99.90;;;;;;4994587;28;20451;-86
2021/07/18 03:36:25;;;;;;;9.30;3.10;;;16.80;99.90;;;;;;5004398;28;20454;-86
2021/07/18 03:38:53;;;;;;;10.07;3.37;;;16.80;99.90;;;;;;5003226;28;20557;-86
2021/07/18 03:41:20;;;;;;;9.73;3.17;;;16.70;99.90;;;;;;5002436;28;20451;-86
2021/07/18 03:43:48;;;;;;;9.67;3.00;;;16.70;99.90;;;;;;4996477;28;20579;-86
2021/07/18 03:46:14;;;;;;;9.00;3.53;;;16.70;99.90;;;;;;4984644;28;20835;-86
2021/07/18 03:48:42;;;;;;;10.30;3.10;;;16.70;99.90;;;;;;4982165;28;20563;-86
2021/07/18 03:51:09;;;;;;;10.73;3.70;;;16.70;99.90;;;;;;4983245;28;20466;-86
2021/07/18 03:53:35;;;;;;;9.30;2.90;;;16.70;99.90;;;;;;4984002;28;20518;-86
2021/07/18 03:56:04;;;;;;;10.37;3.27;;;16.70;99.90;;;;;;4982821;28;20648;-86
2021/07/18 03:58:31;;;;;;;9.10;2.80;;;16.70;99.90;;;;;;4982017;28;20483;-86
2021/07/18 04:00:58;;;;;;;9.80;3.00;;;16.70;99.90;;;;;;4981760;28;20440;-87
2021/07/18 04:03:25;;;;;;;9.57;3.20;;;16.70;99.90;;;;;;4985237;28;20506;-86
2021/07/18 04:05:51;;;;;;;9.57;3.17;;;16.70;99.90;;;;;;4998935;28;20454;-87
2021/07/18 04:08:18;;;;;;;9.77;3.40;;;16.70;99.90;;;;;;5001101;28;20498;-86
2021/07/18 04:10:45;;;;;;;11.67;3.37;;;16.70;99.90;;;;;;5000961;28;20546;-87
2021/07/18 04:13:13;;;;;;;10.43;3.70;;;16.70;99.90;;;;;;5012504;28;20422;-87
2021/07/18 04:15:41;;;;;;;11.23;3.40;;;16.70;99.90;;;;;;5010416;28;20553;-86
2021/07/18 04:18:09;;;;;;;9.83;4.40;;;16.80;99.90;;;;;;4999506;28;20474;-86
2021/07/18 04:20:35;;;;;;;9.83;3.70;;;16.70;99.90;;;;;;5000048;28;20545;-86
2021/07/18 04:23:02;;;;;;;10.50;3.60;;;16.80;99.90;;;;;;5000324;28;20482;-86
2021/07/18 04:25:29;;;;;;;10.90;3.10;;;16.80;99.90;;;;;;4978969;28;21138;-86
2021/07/18 04:27:56;;;;;;;11.50;4.20;;;16.80;99.90;;;;;;4993657;28;20467;-87
2021/07/18 04:30:24;;;;;;;10.13;4.00;;;16.80;99.90;;;;;;5008525;28;20436;-88
2021/07/18 04:32:51;;;;;;;9.60;3.50;;;16.80;99.90;;;;;;5027600;28;20474;-86
2021/07/18 04:35:19;;;;;;;12.43;4.83;;;16.90;99.90;;;;;;5017845;28;20474;-87
2021/07/18 04:37:46;;;;;;;11.07;4.17;;;16.90;99.90;;;;;;5025244;28;20502;-88
2021/07/18 04:40:14;;;;;;;12.40;4.27;;;17.00;99.90;;;;;;4997402;28;20517;-86
2021/07/18 04:42:41;;;;;;;10.00;4.30;;;17.00;99.90;;;;;;5014233;28;20450;-87
2021/07/18 04:45:10;;;;;;;11.40;4.70;;;17.10;99.90;;;;;;4998567;28;20461;-83
2021/07/18 04:47:45;;;;;;;11.35;4.90;;;17.10;99.90;;;;;;4994734;28;20443;-85
2021/07/18 04:50:13;;;;;;;11.10;4.77;;;17.20;99.90;;;;;;4997316;28;20253;-84
2021/07/18 04:52:40;;;;;;;9.60;3.70;;;17.30;99.90;;;;;;4997593;28;20489;-85
2021/07/18 04:55:08;;;;;;;10.90;4.67;;;17.40;99.90;;;;;;4992567;28;20537;-85
2021/07/18 04:57:35;;;;;;;10.50;3.97;;;17.40;99.90;;;;;;5008893;28;20846;-84
2021/07/18 05:00:03;;;;;;;12.47;5.03;;;17.50;99.90;;;;;;5009849;28;20467;-84
2021/07/18 05:02:30;;;;;;;11.17;4.73;;;17.50;99.90;;;;;;5007543;28;20482;-84
2021/07/18 05:04:58;;;;;;;13.10;5.50;;;17.50;99.90;;;;;;4995391;28;20961;-86
2021/07/18 05:07:25;;;;;;;11.70;5.23;;;17.60;99.90;;;;;;4989635;28;20650;-88
2021/07/18 05:09:52;;;;;;;12.10;4.70;;;17.70;99.90;;;;;;4989598;28;20492;-88
2021/07/18 05:12:19;;;;;;;14.17;5.87;;;17.70;99.90;;;;;;4995484;28;20505;-86
2021/07/18 05:14:46;;;;;;;13.20;5.43;;;17.80;99.90;;;;;;5014849;28;20446;-89
2021/07/18 05:17:13;;;;;;;12.10;6.10;;;17.80;99.90;;;;;;5021057;28;20549;-85
2021/07/18 05:19:40;;;;;;;11.10;5.90;;;17.80;99.90;;;;;;5021014;28;20441;-87
2021/07/18 05:22:09;;;;;;;11.63;5.07;;;17.90;99.90;;;;;;5030376;28;20549;-86
2021/07/18 05:24:36;;;;;;;10.70;5.13;;;18.00;99.90;;;;;;5020227;28;20485;-86
2021/07/18 05:27:03;;;;;;;13.23;5.83;;;18.00;99.90;;;;;;5020500;28;20591;-86
2021/07/18 05:29:30;;;;;;;12.53;5.50;;;18.10;99.90;;;;;;5009687;28;21036;-86
2021/07/18 05:31:57;;;;;;;12.20;5.70;;;18.10;99.90;;;;;;5024129;28;20901;-86
2021/07/18 05:34:24;;;;;;;14.83;5.33;;;18.20;99.90;;;;;;5008143;28;20630;-89
2021/07/18 05:36:51;;;;;;;11.83;5.27;;;18.20;99.90;;;;;;5010906;28;20467;-87
2021/07/18 05:39:19;;;;;;;14.33;5.73;;;18.30;99.90;;;;;;5009989;28;20522;-86
2021/07/18 05:41:46;;;;;;;14.83;5.60;;;18.30;99.90;;;;;;5011103;28;20533;-88
2021/07/18 05:44:13;;;;;;;11.00;5.17;;;18.30;99.90;;;;;;5008661;28;20554;-87
2021/07/18 05:46:40;;;;;;;11.87;5.57;;;18.30;99.90;;;;;;4995121;28;20513;-86
2021/07/18 05:49:07;;;;;;;11.17;5.20;;;18.40;99.90;;;;;;5011502;28;20521;-85
2021/07/18 05:51:34;;;;;;;12.97;4.23;;;18.50;99.90;;;;;;5019041;28;20483;-86
2021/07/18 05:54:00;;;;;;;12.40;5.40;;;18.50;99.90;;;;;;5002224;28;20463;-86
2021/07/18 05:56:29;;;;;;;15.50;5.70;;;18.60;99.90;;;;;;5005136;28;20478;-85
2021/07/18 05:58:57;;;;;;;13.20;5.10;;;18.70;99.90;;;;;;5016761;28;20453;-86
2021/07/18 06:01:24;;;;;;;13.20;5.87;;;18.70;99.90;;;;;;5009620;28;20486;-86
2021/07/18 06:03:51;;;;;;;13.40;5.60;;;18.70;99.90;;;;;;5001857;28;20922;-85
2021/07/18 06:06:18;;;;;;;12.40;5.13;;;18.80;99.90;;;;;;4998489;28;20870;-85
2021/07/18 06:08:45;;;;;;;12.03;5.00;;;18.80;99.90;;;;;;4998005;28;21030;-86
2021/07/18 06:11:27;;;;;;;11.80;5.40;;;18.90;99.90;;;;;;5005580;28;20453;-84
2021/07/18 06:16:42;;;;;;;13.27;5.10;;;18.90;99.90;;;;;;4985389;28;20510;-84
2021/07/18 06:22:10;;;;;;;11.60;4.93;;;19.10;99.90;;;;;;4991758;28;20467;-84
2021/07/18 06:27:47;;;;;;;13.30;4.40;;;19.20;99.90;;;;;;4984367;28;20470;-84
2021/07/18 06:30:18;;;;;;;12.00;5.20;;;19.20;99.90;;;;;;4998991;28;20464;-84
2021/07/18 06:32:48;;;;;;;10.20;3.97;;;19.30;99.90;;;;;;5005257;28;20474;-84
2021/07/18 06:35:24;;;;;;;10.00;3.70;;;19.30;99.90;;;;;;5000554;28;20821;-85
2021/07/18 06:37:52;;;;;;;11.30;4.67;;;19.40;99.90;;;;;;4999991;28;20467;-85
2021/07/18 06:40:26;;;;;;;11.20;3.97;;;19.50;99.90;;;;;;4989115;28;20479;-84
2021/07/18 06:46:11;;;;;;;;;;;;;;;;;;;;;
2021/07/18 06:48:56;;;;;;;11.17;3.70;;;19.70;99.90;;;;;;5009684;28;20450;-84
2021/07/18 06:51:47;;;;;;;11.70;3.33;;;19.70;99.90;;;;;;5000903;28;20442;-83
2021/07/18 06:54:40;;;;;;;11.97;3.60;;;19.70;99.90;;;;;;4996927;28;20475;-84
2021/07/18 06:59:50;;;;;;;11.70;3.00;;;19.90;99.90;;;;;;5001824;28;20522;-84
2021/07/18 07:02:18;;;;;;;11.47;2.77;;;20.00;99.90;;;;;;4992508;28;20515;-85
2021/07/18 07:04:45;;;;;;;11.37;2.37;;;20.20;99.90;;;;;;4987310;28;20511;-84
2021/07/18 07:07:12;;;;;;;10.10;2.80;;;20.30;99.90;;;;;;4992870;28;20919;-84
2021/07/18 07:09:39;;;;;;;9.70;2.17;;;20.30;99.90;;;;;;5000264;28;20449;-84
2021/07/18 07:12:07;;;;;;;10.50;2.50;;;20.30;99.90;;;;;;5003883;28;20454;-84
2021/07/18 07:14:34;;;;;;;11.57;2.67;;;20.30;99.90;;;;;;5003204;28;20542;-85
2021/07/18 07:17:01;;;;;;;11.53;3.10;;;20.40;99.90;;;;;;4993514;28;20578;-84
2021/07/18 07:19:29;;;;;;;11.43;2.63;;;20.50;99.90;;;;;;5004678;28;20483;-85
2021/07/18 07:21:56;;;;;;;13.00;2.80;;;20.50;99.90;;;;;;4993656;28;20450;-84
2021/07/18 07:24:23;;;;;;;12.27;2.90;;;20.40;99.90;;;;;;4993277;28;20565;-84
2021/07/18 07:26:50;;;;;;;12.70;2.87;;;20.60;99.90;;;;;;5004246;28;20460;-85
2021/07/18 07:29:17;;;;;;;12.53;2.50;;;20.80;99.90;;;;;;5010024;28;20501;-84
2021/07/18 07:31:43;;;;;;;12.53;2.20;;;20.90;99.90;;;;;;5011078;28;20442;-86
2021/07/18 07:34:10;;;;;;;12.87;2.57;;;21.10;99.90;;;;;;5000893;28;20470;-85
2021/07/18 07:36:38;;;;;;;12.23;2.80;;;21.20;99.90;;;;;;4997348;28;20520;-85
2021/07/18 07:39:05;;;;;;;14.43;2.47;;;21.20;99.90;;;;;;4998404;28;20493;-86
2021/07/18 07:41:33;;;;;;;13.00;2.60;;;21.40;99.90;;;;;;4998947;28;20543;-85
2021/07/18 07:44:00;;;;;;;13.93;2.10;;;21.40;99.90;;;;;;5000040;28;20502;-86
2021/07/18 07:46:27;;;;;;;12.80;2.90;;;21.50;99.90;;;;;;4997622;28;20449;-84
2021/07/18 07:48:55;;;;;;;14.97;2.77;;;21.70;99.90;;;;;;5026927;28;20946;-85
2021/07/18 07:51:22;;;;;;;12.07;1.60;;;21.50;99.90;;;;;;5013383;28;20515;-84
2021/07/18 07:53:51;;;;;;;13.07;2.20;;;21.70;99.90;;;;;;4987774;28;20515;-85
2021/07/18 07:56:19;;;;;;;13.40;2.30;;;21.90;99.90;;;;;;4989086;28;20431;-84
2021/07/18 07:58:46;;;;;;;13.80;2.20;;;22.00;99.90;;;;;;5000901;28;20517;-85
2021/07/18 08:01:13;;;;;;;12.90;2.37;;;22.10;99.90;;;;;;5012154;28;20447;-86
2021/07/18 08:03:40;;;;;;;13.17;1.97;;;22.20;99.90;;;;;;5008457;28;20478;-84
2021/07/18 08:06:07;;;;;;;15.00;2.20;;;22.30;99.90;;;;;;5012861;28;20506;-86
2021/07/18 08:08:34;;;;;;;16.23;1.90;;;22.50;99.90;;;;;;5015285;28;20518;-84
2021/07/18 08:11:02;;;;;;;15.60;2.73;;;22.40;99.90;;;;;;5007455;28;20455;-84
2021/07/18 08:13:29;;;;;;;14.10;1.90;;;22.50;99.90;;;;;;5008731;28;20455;-85
2021/07/18 08:15:56;;;;;;;13.63;2.23;;;22.70;99.90;;;;;;5014827;28;20542;-85
2021/07/18 08:18:23;;;;;;;14.60;2.20;;;22.70;99.90;;;;;;5008592;28;20518;-85
2021/07/18 08:20:50;;;;;;;13.90;1.80;;;22.90;99.90;;;;;;4987301;28;20514;-87
2021/07/18 08:23:17;;;;;;;15.53;2.43;;;23.00;99.90;;;;;;4988512;28;20490;-86
2021/07/18 08:25:44;;;;;;;16.83;1.93;;;23.20;99.90;;;;;;4999417;28;20491;-85
2021/07/18 08:28:12;;;;;;;15.13;2.27;;;23.30;99.90;;;;;;5016094;28;20490;-85
2021/07/18 08:30:42;;;;;;;14.90;1.70;;;23.40;99.90;;;;;;5008016;28;20454;-86
2021/07/18 08:33:09;;;;;;;15.00;2.00;;;23.60;99.90;;;;;;4989417;28;20535;-87
2021/07/18 08:35:36;;;;;;;14.10;2.00;;;23.80;99.90;;;;;;4988679;28;21102;-85
2021/07/18 08:38:03;;;;;;;17.27;1.90;;;24.00;99.90;;;;;;4988358;28;20475;-85
2021/07/18 08:40:34;;;;;;;14.93;1.70;;;23.90;99.90;;;;;;4986671;28;20448;-86
2021/07/18 08:43:01;;;;;;;18.40;2.67;;;23.90;99.90;;;;;;5002227;28;20498;-86
2021/07/18 08:45:30;;;;;;;15.43;1.80;;;24.10;99.90;;;;;;5007356;28;20523;-85
2021/07/18 08:47:57;;;;;;;14.50;1.77;;;24.30;99.90;;;;;;5002451;28;20539;-86
2021/07/18 08:50:24;;;;;;;17.37;2.30;;;24.50;99.90;;;;;;5008479;28;20507;-86
2021/07/18 08:52:52;;;;;;;14.13;1.83;;;24.50;99.90;;;;;;5011455;28;20469;-87
2021/07/18 08:55:20;;;;;;;16.63;2.20;;;24.70;99.90;;;;;;5011137;28;20455;-85
2021/07/18 08:57:47;;;;;;;14.43;2.33;;;24.80;99.90;;;;;;5005099;28;20498;-84
2021/07/18 09:00:14;;;;;;;15.07;2.03;;;25.00;99.90;;;;;;5016639;28;20466;-86
2021/07/18 09:02:43;;;;;;;15.60;2.37;;;25.00;99.90;;;;;;5018229;28;20437;-85
2021/07/18 09:05:11;;;;;;;16.97;2.50;;;25.20;99.90;;;;;;5015791;28;20521;-86
2021/07/18 09:07:46;;;;;;;14.37;2.00;;;25.30;99.90;;;;;;5014370;28;20496;-83
2021/07/18 09:10:14;;;;;;;16.80;2.10;;;25.30;99.90;;;;;;5014824;28;20490;-86
2021/07/18 09:12:42;;;;;;;15.23;1.97;;;25.20;99.90;;;;;;5003558;28;20514;-85
2021/07/18 09:15:10;;;;;;;15.40;1.90;;;25.30;99.90;;;;;;5001243;28;20478;-85
2021/07/18 09:17:39;;;;;;;15.20;2.10;;;25.50;99.90;;;;;;5005541;28;20918;-85
2021/07/18 09:20:17;;;;;;;16.53;2.10;;;25.50;99.90;;;;;;5073857;22;20541;-87
2021/07/18 09:22:44;;;;;;;15.27;2.37;;;25.60;99.90;;;;;;5082323;28;20449;-87
2021/07/18 09:25:12;;;;;;;14.00;1.80;;;25.70;99.90;;;;;;5067106;28;20487;-86
2021/07/18 09:27:39;;;;;;;15.33;1.70;;;25.80;99.90;;;;;;5052692;28;20447;-87
2021/07/18 09:30:08;;;;;;;18.90;2.00;;;26.00;99.90;;;;;;5044344;28;20467;-87
2021/07/18 09:32:37;;;;;;;15.70;2.23;;;26.00;99.90;;;;;;5037616;28;20472;-86
2021/07/18 09:35:08;;;;;;;18.20;2.50;;;26.20;99.90;;;;;;5073887;28;20423;-86
2021/07/18 09:37:37;;;;;;;15.33;2.20;;;26.20;99.90;;;;;;5075883;28;20607;-86
2021/07/18 09:40:08;;;;;;;19.30;1.90;;;26.30;99.90;;;;;;5051433;28;20915;-86
2021/07/18 09:42:38;;;;;;;14.20;2.20;;;26.30;99.90;;;;;;5040082;28;20817;-86
2021/07/18 09:45:14;;;;;;;14.70;1.87;;;26.40;99.90;;;;;;5039889;28;20486;-86
2021/07/18 09:47:54;;;;;;;18.97;2.83;;;26.50;99.90;;;;;;5045993;28;20524;-87
2021/07/18 09:50:23;;;;;;;20.10;2.27;;;26.70;99.90;;;;;;5030796;28;20469;-86
2021/07/18 09:52:51;;;;;;;19.40;2.20;;;26.70;99.90;;;;;;5031147;28;20449;-86
2021/07/18 09:55:22;;;;;;;23.50;2.23;;;26.80;99.90;;;;;;5031553;28;20467;-86
2021/07/18 09:57:52;;;;;;;21.47;1.80;;;26.80;99.90;;;;;;5029073;28;20510;-86
2021/07/18 10:00:22;;;;;;;26.67;1.90;;;27.00;99.90;;;;;;5035748;28;20476;-86
2021/07/18 10:02:51;;;;;;;42.90;2.37;;;27.20;99.90;;;;;;5052560;28;20459;-86
2021/07/18 10:05:27;;;;;;;40.30;2.10;;;27.20;99.90;;;;;;5055624;28;20585;-86
2021/07/18 10:08:04;;;;;;;38.80;2.50;;;27.40;99.90;;;;;;5058015;28;20455;-87
2021/07/18 10:10:31;;;;;;;44.10;3.20;;;27.60;99.90;;;;;;5050685;28;20474;-87
2021/07/18 10:12:59;;;;;;;72.30;49.47;;;27.40;99.90;;;;;;5038357;28;20836;-86
2021/07/18 10:15:26;;;;;;;44.53;2.93;;;27.50;99.90;;;;;;5039944;28;20456;-87
2021/07/18 10:17:56;;;;;;;42.50;2.67;;;27.70;99.90;;;;;;5041651;28;20463;-87
2021/07/18 10:20:23;;;;;;;46.53;4.13;;;27.90;99.90;;;;;;5058185;28;20475;-87
2021/07/18 10:22:54;;;;;;;43.30;2.77;;;28.10;99.90;;;;;;5083973;28;20451;-87
2021/07/18 10:25:25;;;;;;;101.77;91.77;;;28.20;99.90;;;;;;5080921;28;20482;-87
2021/07/18 10:27:52;;;;;;;238.90;222.27;;;28.40;99.90;;;;;;5065343;28;20458;-87
2021/07/18 10:30:20;;;;;;;46.13;4.10;;;28.50;99.90;;;;;;5066605;28;20475;-86
2021/07/18 10:32:51;;;;;;;53.43;13.50;;;28.50;99.90;;;;;;5076204;28;20450;-86
2021/07/18 10:35:22;;;;;;;69.63;41.20;;;28.60;99.90;;;;;;5076962;28;20446;-86
2021/07/18 10:37:49;;;;;;;178.13;165.07;;;28.80;99.90;;;;;;5083446;28;20431;-87
2021/07/18 10:40:19;;;;;;;157.03;144.67;;;28.80;99.90;;;;;;5077210;28;20505;-86
2021/07/18 10:42:47;;;;;;;72.93;46.93;;;29.00;99.90;;;;;;5078945;28;20445;-87
2021/07/18 10:45:21;;;;;;;412.27;388.63;;;29.10;99.90;;;;;;5075256;28;20488;-87
2021/07/18 10:48:03;;;;;;;381.63;360.07;;;29.00;99.90;;;;;;5076315;28;20446;-87
2021/07/18 10:50:58;;;;;;;143.33;131.17;;;29.10;99.90;;;;;;5066167;28;20478;-86
2021/07/18 10:53:29;;;;;;;125.23;113.67;;;29.10;99.90;;;;;;5058932;28;20978;-86
2021/07/18 10:55:57;;;;;;;297.33;279.37;;;29.20;99.90;;;;;;5058665;28;20451;-86
2021/07/18 10:58:45;;;;;;;332.50;313.80;;;29.20;99.90;;;;;;5060474;28;20447;-87
2021/07/18 11:01:43;;;;;;;126.37;115.27;;;29.10;99.90;;;;;;5065704;28;20466;-87
2021/07/18 11:04:49;;;;;;;76.63;62.57;;;29.30;99.90;;;;;;5065650;28;20443;-87
2021/07/18 11:07:40;;;;;;;354.83;334.53;;;29.50;99.90;;;;;;5064420;28;20990;-88
2021/07/18 11:10:20;;;;;;;388.53;366.80;;;29.60;99.90;;;;;;5072290;28;20889;-87
2021/07/18 11:12:49;;;;;;;162.00;149.63;;;29.60;99.90;;;;;;5053881;28;20447;-87
2021/07/18 11:15:36;;;;;;;157.10;144.83;;;29.80;99.90;;;;;;5053524;28;20440;-87
2021/07/18 11:18:06;;;;;;;361.90;341.37;;;29.90;99.90;;;;;;5054016;28;20432;-87
2021/07/18 11:20:52;;;;;;;391.27;369.23;;;30.00;99.90;;;;;;5058637;28;20857;-86
2021/07/18 11:23:20;;;;;;;929.27;580.77;;;30.20;99.90;;;;;;5074151;28;20534;-86
2021/07/18 11:25:52;;;;;;;587.57;551.97;;;30.30;99.90;;;;;;5073291;28;20995;-88
2021/07/18 11:28:39;;;;;;;233.97;219.13;;;30.40;99.90;;;;;;5073453;28;20979;-86
2021/07/18 11:31:47;;;;;;;378.93;356.97;;;30.40;99.90;;;;;;5063868;28;20875;-86
2021/07/18 11:34:18;;;;;;;1370.90;698.33;;;30.40;99.90;;;;;;5023246;28;20956;-87
2021/07/18 11:37:05;;;;;;;481.03;454.77;;;30.60;99.90;;;;;;5052962;28;20494;-87
2021/07/18 11:39:35;;;;;;;1999.90;999.90;;;30.80;99.90;;;;;;5077158;22;20500;-87
2021/07/18 11:42:08;;;;;;;419.43;393.03;;;30.70;99.90;;;;;;5069975;28;20524;-87
2021/07/18 11:44:36;;;;;;;1489.57;813.27;;;30.70;99.90;;;;;;5068711;28;20448;-86
2021/07/18 11:47:11;;;;;;;1999.90;999.90;;;30.80;99.90;;;;;;5061128;28;20447;-87
2021/07/18 11:53:19;;;;;;;480.93;453.67;;;31.00;99.90;;;;;;4985292;28;20470;-88
2021/07/18 11:59:10;;;;;;;924.37;575.03;;;31.20;99.90;;;;;;5063515;28;20452;-87
2021/07/18 12:05:06;;;;;;;168.07;147.43;;;30.90;99.90;;;;;;4980422;28;20522;-87
2021/07/18 12:07:33;;;;;;;1999.90;999.90;;;31.30;99.90;;;;;;5074400;28;20447;-87
2021/07/18 12:09:59;;;;;;;1999.90;999.90;;;31.50;99.90;;;;;;5053865;28;20980;-87
2021/07/18 12:12:26;;;;;;;1999.90;999.90;;;31.60;99.90;;;;;;5056284;28;20440;-88
2021/07/18 12:14:55;;;;;;;1999.90;999.90;;;31.70;99.90;;;;;;5073946;28;20519;-90
2021/07/18 12:17:22;;;;;;;1999.90;999.90;;;31.90;99.90;;;;;;5097818;28;20455;-87
2021/07/18 12:19:49;;;;;;;1372.00;701.03;;;32.20;99.90;;;;;;5097063;28;20514;-88
2021/07/18 12:22:19;;;;;;;1999.90;999.90;;;32.40;99.90;;;;;;5076292;28;20453;-87
2021/07/18 12:24:50;;;;;;;1999.90;999.90;;;32.50;99.90;;;;;;5059825;28;20471;-86
2021/07/18 12:27:18;;;;;;;1999.90;999.90;;;32.30;99.90;;;;;;5054332;28;20444;-87
2021/07/18 12:29:48;;;;;;;1999.90;999.90;;;31.70;99.90;;;;;;5053890;28;20577;-87
2021/07/18 12:32:15;;;;;;;1999.90;999.90;;;31.70;99.90;;;;;;5067076;28;20442;-87
2021/07/18 12:34:44;;;;;;;1999.90;999.90;;;32.00;99.90;;;;;;5053576;28;20458;-87
2021/07/18 12:37:13;;;;;;;1999.90;999.90;;;32.20;99.90;;;;;;5057523;28;20831;-86
2021/07/18 12:39:43;;;;;;;1999.90;999.90;;;32.20;99.90;;;;;;5054026;28;20482;-86
2021/07/18 12:42:13;;;;;;;592.90;558.83;;;31.90;99.90;;;;;;5053817;28;20455;-87
2021/07/18 12:44:46;;;;;;;1999.90;999.90;;;31.80;99.90;;;;;;5054064;28;20462;-87
2021/07/18 12:47:33;;;;;;;1999.90;999.90;;;31.90;99.90;;;;;;5053182;28;20443;-86
2021/07/18 12:50:28;;;;;;;1999.90;999.90;;;32.00;99.90;;;;;;5053945;28;20847;-86
2021/07/18 12:53:08;;;;;;;1999.90;999.90;;;31.90;99.90;;;;;;5054718;28;20443;-86
2021/07/18 12:55:41;;;;;;;1999.90;999.90;;;31.90;99.90;;;;;;5055038;28;20428;-86
2021/07/18 12:58:13;;;;;;;1999.90;999.90;;;31.90;99.90;;;;;;5055112;28;20507;-87
2021/07/18 13:00:41;;;;;;;1999.90;999.90;;;32.00;99.90;;;;;;5052719;28;20820;-87
2021/07/18 13:03:13;;;;;;;1999.90;999.90;;;32.00;99.90;;;;;;5053054;28;20452;-87
2021/07/18 13:05:40;;;;;;;1999.90;999.90;;;32.30;99.90;;;;;;5052904;28;20490;-86
2021/07/18 13:08:07;;;;;;;1999.90;999.90;;;32.50;99.90;;;;;;5053027;28;20452;-87
2021/07/18 13:10:41;;;;;;;1999.90;999.90;;;32.50;99.90;;;;;;5069102;28;20498;-88